SLJO

Details ICAO SLJO
Name San Joaquin
Region Bolivia
Timezone America/La_Paz (UTC-4.0)
Plans Departing 0
Arriving 0
Stats Elevation 456 ft / 139 m (AMSL)
Location -13.039444° -64.665276°
Runways 1
Magnetic Variation 11.657° W
Sunrise 2017-12-12 09:47:29 UTC / 2017-12-12 05:47:29 Local
Sunset 2017-12-12 22:40:19 UTC / 2017-12-12 18:40:19 Local
Advertisement - Login to hide

Runways

ID Width Length Bearing (true) Bearing (mag) Surface Threshold Offset Overrun Length
16 94 ft / 29 m 6,568 ft / 2,002 m 155.00° 166.66° Concrete 0 ft / 0 m 0 ft / 0 m
34 94 ft / 29 m 6,568 ft / 2,002 m 335.00° 346.66° Concrete 0 ft / 0 m 0 ft / 0 m

Map

Weather


0- 5 10 15 20 25 30 35+ Temperature / ° C

Clouds and Precipitation
Forecast for 2017-12-12 12:00 UTC. Updated 2 hours ago

Ground ~20,000 ft ~40,000 ft Winds

METAR

SLJO 121200Z 00000KT 9999 FEW017 26/25 Q1010

TAF

Not found
Warning: Do not use this data for real-world aviation or navigation. No guarantee of current accuracy is given.